Time;durP1;ratioP1;P1;durP2;ratioP2;P2;SDS_P1;SDS_P2;PMS_P1;PMS_P2;Temp;Humidity;BMP_temperature;BMP_pressure;BME280_temperature;BME280_humidity;BME280_pressure;Samples;Min_cycle;Max_cycle;Signal;HPM_P1;HPM_P2
2023/08/01 00:00:59;;;;;;;6.78;4.47;;;;;;;19.87;94.24;98590.09;5071469;28;20029;-81
2023/08/01 00:03:24;;;;;;;5.72;3.88;;;;;;;19.78;94.45;98587.56;5071634;28;20093;-81
2023/08/01 00:05:50;;;;;;;6.05;3.97;;;;;;;19.74;94.81;98578.28;5071280;28;20035;-81
2023/08/01 00:08:15;;;;;;;5.85;3.88;;;;;;;19.71;95.15;98574.13;5071842;28;20040;-81
2023/08/01 00:10:41;;;;;;;5.05;4.30;;;;;;;19.48;95.70;98542.09;5071433;28;20028;-81
2023/08/01 00:13:07;;;;;;;7.18;3.70;;;;;;;19.70;95.61;98577.78;5071208;28;20131;-81
2023/08/01 00:15:32;;;;;;;4.63;3.40;;;;;;;19.68;95.69;98566.53;5071663;28;20025;-81
2023/08/01 00:17:57;;;;;;;4.22;3.63;;;;;;;19.68;95.53;98559.44;5071296;28;20032;-82
2023/08/01 00:20:23;;;;;;;8.07;4.25;;;;;;;19.62;95.59;98538.09;5071371;28;20020;-81
2023/08/01 00:22:48;;;;;;;5.93;3.72;;;;;;;19.55;95.83;98531.72;5074770;28;20035;-81
2023/08/01 00:25:14;;;;;;;4.90;3.65;;;;;;;19.61;95.91;98553.13;5075016;28;20514;-81
2023/08/01 00:27:39;;;;;;;4.78;3.83;;;;;;;19.45;95.99;98524.75;5074919;28;20455;-81
2023/08/01 00:30:05;;;;;;;4.28;3.40;;;;;;;19.52;96.30;98543.47;5074584;28;20035;-82
2023/08/01 00:32:31;;;;;;;7.18;3.97;;;;;;;19.39;96.34;98519.28;5075065;28;20029;-81
2023/08/01 00:34:56;;;;;;;5.72;3.83;;;;;;;19.37;97.00;98524.69;5074713;28;20036;-81
2023/08/01 00:37:21;;;;;;;5.20;3.70;;;;;;;19.22;97.08;98505.13;5074836;28;20465;-81
2023/08/01 00:39:47;;;;;;;4.47;4.07;;;;;;;19.19;96.93;98487.78;5056504;28;20040;-81
2023/08/01 00:42:13;;;;;;;5.20;4.10;;;;;;;19.39;97.38;98522.75;5074594;28;20082;-81
2023/08/01 00:44:38;;;;;;;4.60;3.40;;;;;;;19.38;97.23;98525.53;5056857;28;20020;-81
2023/08/01 00:47:04;;;;;;;4.65;3.33;;;;;;;19.39;96.94;98528.03;5074566;28;20036;-81
2023/08/01 00:49:30;;;;;;;6.50;3.55;;;;;;;19.23;97.67;98504.16;5074561;28;20024;-81
2023/08/01 00:51:55;;;;;;;5.50;3.70;;;;;;;19.04;97.46;98476.13;5074683;28;20162;-81
2023/08/01 00:54:21;;;;;;;6.07;3.90;;;;;;;19.22;97.70;98509.59;5074453;28;20555;-81
2023/08/01 00:56:46;;;;;;;5.80;3.80;;;;;;;18.98;97.94;98468.00;5074166;28;20020;-81
2023/08/01 00:59:13;;;;;;;3.92;3.53;;;;;;;18.97;98.12;98482.19;5074365;28;20028;-81
2023/08/01 01:01:38;;;;;;;5.32;3.28;;;;;;;19.06;98.33;98484.72;5074531;28;20028;-80
2023/08/01 01:04:03;;;;;;;4.55;3.40;;;;;;;18.94;98.33;98460.38;5056312;28;20871;-81
2023/08/01 01:06:39;;;;;;;6.57;3.78;;;;;;;19.12;97.71;98491.19;5074753;28;20482;-81
2023/08/01 01:09:16;;;;;;;5.95;3.67;;;;;;;19.04;98.42;98475.28;5074250;28;20032;-81
2023/08/01 01:11:41;;;;;;;5.68;3.60;;;;;;;19.08;99.01;98479.28;5074494;28;20418;-81
2023/08/01 01:14:06;;;;;;;4.38;3.97;;;;;;;19.07;98.93;98480.28;5074411;28;20048;-81
2023/08/01 01:16:31;;;;;;;4.88;3.67;;;;;;;18.85;99.24;98456.03;5074607;28;20028;-81
2023/08/01 01:18:57;;;;;;;3.72;3.20;;;;;;;18.75;98.93;98439.47;5074623;28;20078;-81
2023/08/01 01:21:25;;;;;;;6.25;3.70;;;;;;;18.77;99.26;98436.69;5074762;28;20074;-80
2023/08/01 01:23:52;;;;;;;5.53;3.58;;;;;;;18.73;98.83;98436.16;5074618;28;20126;-80
2023/08/01 01:26:21;;;;;;;6.45;3.58;;;;;;;18.73;98.84;98428.25;5074786;28;20036;-80
2023/08/01 01:28:49;;;;;;;7.60;3.75;;;;;;;18.80;98.82;98444.28;5077851;28;20036;-81
2023/08/01 01:31:15;;;;;;;6.53;3.63;;;;;;;18.81;99.02;98449.41;5075234;28;20051;-81
2023/08/01 01:33:41;;;;;;;8.52;3.78;;;;;;;18.66;99.02;98429.78;5063623;28;20025;-80
2023/08/01 01:36:07;;;;;;;5.75;3.65;;;;;;;18.65;99.59;98425.50;5085123;28;20483;-81
2023/08/01 01:38:32;;;;;;;6.55;3.83;;;;;;;18.57;99.67;98420.97;5085555;28;20028;-81
2023/08/01 01:40:57;;;;;;;5.68;3.53;;;;;;;18.69;100.00;98448.81;5088441;28;20028;-81
2023/08/01 01:43:22;;;;;;;5.50;3.88;;;;;;;18.73;99.65;98445.88;5091672;28;20037;-81
2023/08/01 01:45:48;;;;;;;5.88;3.55;;;;;;;18.56;99.55;98406.16;5089838;28;20035;-81
2023/08/01 01:48:13;;;;;;;5.03;3.63;;;;;;;18.45;99.64;98386.09;5060573;28;20020;-81
2023/08/01 01:50:38;;;;;;;4.68;3.90;;;;;;;18.56;100.00;98407.97;5074175;28;20082;-80
2023/08/01 01:53:04;;;;;;;6.25;4.15;;;;;;;18.66;100.00;98424.50;5073489;28;20056;-81
2023/08/01 01:55:29;;;;;;;4.43;3.55;;;;;;;18.57;100.00;98391.16;5073299;28;20028;-81
2023/08/01 01:57:54;;;;;;;4.43;3.33;;;;;;;18.70;100.00;98421.44;5073315;28;20036;-81
2023/08/01 02:00:20;;;;;;;4.57;3.42;;;;;;;18.70;100.00;98418.81;5073401;28;20032;-81
2023/08/01 02:02:45;;;;;;;5.95;4.00;;;;;;;18.55;100.00;98387.84;5073321;28;20074;-82
2023/08/01 02:05:10;;;;;;;3.90;3.22;;;;;;;18.77;100.00;98418.22;5072917;28;20029;-82
2023/08/01 02:07:35;;;;;;;4.35;3.45;;;;;;;18.66;99.90;98398.13;5073047;28;20024;-82
2023/08/01 02:10:02;;;;;;;4.90;3.63;;;;;;;18.71;100.00;98406.47;5072999;28;20078;-81
2023/08/01 02:12:31;;;;;;;4.65;3.53;;;;;;;18.83;100.00;98414.94;5072850;28;20020;-81
2023/08/01 02:14:57;;;;;;;5.68;3.47;;;;;;;18.73;100.00;98401.03;5073000;28;20016;-81
2023/08/01 02:17:22;;;;;;;5.07;3.63;;;;;;;18.64;100.00;98377.22;5073046;28;20376;-83
2023/08/01 02:19:47;;;;;;;7.15;4.20;;;;;;;18.71;100.00;98382.75;5072764;28;20076;-82
2023/08/01 02:22:13;;;;;;;3.67;3.30;;;;;;;18.57;100.00;98367.41;5072502;28;20518;-82
2023/08/01 02:24:38;;;;;;;4.05;3.65;;;;;;;18.56;100.00;98355.22;5073367;28;20082;-83
2023/08/01 02:27:04;;;;;;;4.03;3.60;;;;;;;18.83;100.00;98405.22;5054935;28;20566;-82
2023/08/01 02:29:29;;;;;;;3.65;3.08;;;;;;;18.81;100.00;98388.72;5072979;28;20383;-83
2023/08/01 02:31:56;;;;;;;4.43;3.28;;;;;;;18.82;100.00;98385.09;5072502;28;20064;-83
2023/08/01 02:34:21;;;;;;;6.05;3.78;;;;;;;18.74;100.00;98373.66;5054642;28;20115;-82
2023/08/01 02:36:46;;;;;;;5.07;3.70;;;;;;;18.66;100.00;98361.22;5072461;28;20174;-83
2023/08/01 02:39:12;;;;;;;6.07;3.35;;;;;;;18.79;100.00;98379.31;5054475;28;20028;-83
2023/08/01 02:41:37;;;;;;;5.05;3.30;;;;;;;18.66;100.00;98348.84;5072667;28;20052;-82
2023/08/01 02:44:02;;;;;;;7.60;4.00;;;;;;;18.83;100.00;98376.19;5072155;28;20020;-82
2023/08/01 02:46:29;;;;;;;4.55;3.67;;;;;;;18.63;100.00;98332.53;5072454;28;20036;-82
2023/08/01 02:48:55;;;;;;;4.68;3.42;;;;;;;18.65;100.00;98336.66;5072190;28;20491;-82
2023/08/01 02:51:20;;;;;;;4.35;3.53;;;;;;;18.78;100.00;98367.94;5072451;28;20027;-83
2023/08/01 02:53:45;;;;;;;5.78;3.58;;;;;;;18.66;100.00;98342.75;5072312;28;20023;-82
2023/08/01 02:56:10;;;;;;;6.75;3.60;;;;;;;18.74;100.00;98349.94;5072330;28;20077;-82
2023/08/01 02:58:36;;;;;;;5.35;3.67;;;;;;;18.78;99.79;98354.75;5072425;28;20059;-82
2023/08/01 03:01:07;;;;;;;6.05;3.70;;;;;;;18.72;99.99;98330.81;5072075;28;20032;-82
2023/08/01 03:03:32;;;;;;;4.50;3.67;;;;;;;18.77;100.00;98339.09;5072306;28;20364;-82
2023/08/01 03:05:57;;;;;;;5.57;3.90;;;;;;;18.82;100.00;98342.06;5071927;28;20035;-82
2023/08/01 03:08:23;;;;;;;5.88;3.92;;;;;;;18.76;100.00;98332.16;5072157;28;20036;-82
2023/08/01 03:10:49;;;;;;;3.58;3.28;;;;;;;18.79;100.00;98340.56;5072383;28;20037;-82
2023/08/01 03:13:14;;;;;;;4.03;3.63;;;;;;;18.74;100.00;98332.28;5071795;28;20056;-82
2023/08/01 03:15:39;;;;;;;4.95;3.53;;;;;;;18.85;100.00;98333.84;5054165;28;20025;-82
2023/08/01 03:18:05;;;;;;;4.50;3.70;;;;;;;18.81;100.00;98329.88;5071761;28;20029;-82
2023/08/01 03:20:30;;;;;;;4.30;3.90;;;;;;;18.64;100.00;98302.53;5072100;28;20028;-82
2023/08/01 03:22:55;;;;;;;4.70;3.75;;;;;;;18.77;100.00;98317.97;5071988;28;20033;-82
2023/08/01 03:25:21;;;;;;;5.78;4.30;;;;;;;18.81;100.00;98324.59;5072191;28;20025;-82
2023/08/01 03:27:46;;;;;;;6.75;3.60;;;;;;;18.68;100.00;98306.53;5071864;28;20029;-82
2023/08/01 03:30:11;;;;;;;4.63;3.63;;;;;;;18.67;100.00;98297.78;5072028;28;20039;-82
2023/08/01 03:32:37;;;;;;;5.05;3.97;;;;;;;18.82;100.00;98321.78;5071919;28;20025;-82
2023/08/01 03:35:06;;;;;;;5.15;3.88;;;;;;;18.75;100.00;98301.47;5071487;28;20020;-83
2023/08/01 03:37:31;;;;;;;6.10;3.75;;;;;;;18.81;100.00;98320.16;5072145;28;20035;-82
2023/08/01 03:39:56;;;;;;;7.35;4.63;;;;;;;18.62;100.00;98281.59;5071739;28;20029;-82
2023/08/01 03:42:22;;;;;;;5.57;4.13;;;;;;;18.79;100.00;98301.00;5071873;28;20033;-82
2023/08/01 03:44:48;;;;;;;5.85;4.25;;;;;;;18.70;100.00;98279.03;5071938;28;20087;-82
2023/08/01 03:47:13;;;;;;;8.27;6.95;;;;;;;18.66;100.00;98277.66;5071650;28;20475;-82
2023/08/01 03:49:38;;;;;;;12.48;11.27;;;;;;;18.83;100.00;98304.97;5071733;28;20081;-82
2023/08/01 03:52:05;;;;;;;18.90;17.00;;;;;;;18.77;100.00;98292.44;5053540;28;20024;-82
2023/08/01 03:54:30;;;;;;;21.77;19.67;;;;;;;18.63;100.00;98263.97;5071846;28;20032;-83
2023/08/01 03:56:56;;;;;;;19.15;17.35;;;;;;;18.65;100.00;98270.72;5073834;28;20024;-82
2023/08/01 03:59:22;;;;;;;21.58;19.15;;;;;;;18.83;100.00;98302.34;5057576;28;20036;-82
2023/08/01 04:01:47;;;;;;;33.30;29.80;;;;;;;18.81;100.00;98292.94;5075573;28;20025;-82
2023/08/01 04:04:12;;;;;;;46.22;41.33;;;;;;;18.60;100.00;98259.00;5075206;28;20135;-82
2023/08/01 04:06:38;;;;;;;34.45;30.85;;;;;;;18.79;100.00;98293.09;5075384;28;20093;-82
2023/08/01 04:09:03;;;;;;;20.27;18.20;;;;;;;18.64;100.00;98269.09;5075297;28;20055;-82
2023/08/01 04:11:29;;;;;;;16.27;14.70;;;;;;;18.77;100.00;98294.25;5075377;28;20025;-82
2023/08/01 04:13:55;;;;;;;13.77;12.25;;;;;;;18.79;100.00;98300.19;5075270;28;20052;-82
2023/08/01 04:16:21;;;;;;;10.73;9.02;;;;;;;18.53;100.00;98248.25;5075063;28;20028;-82
2023/08/01 04:18:46;;;;;;;8.25;7.15;;;;;;;18.68;100.00;98273.06;5075328;28;20032;-82
2023/08/01 04:21:14;;;;;;;5.57;4.78;;;;;;;18.79;100.00;98287.81;5056825;28;20031;-82
2023/08/01 04:23:40;;;;;;;4.65;4.10;;;;;;;18.76;100.00;98280.22;5075343;28;20025;-82
2023/08/01 04:26:08;;;;;;;5.57;3.88;;;;;;;18.75;100.00;98278.59;5057907;28;20040;-82
2023/08/01 04:28:34;;;;;;;5.18;4.20;;;;;;;18.74;100.00;98276.91;5075788;28;20391;-82
2023/08/01 04:31:00;;;;;;;5.18;3.92;;;;;;;18.81;100.00;98275.31;5075459;28;20020;-82
2023/08/01 04:33:25;;;;;;;6.28;4.18;;;;;;;18.71;100.00;98266.69;5056897;28;20489;-82
2023/08/01 04:35:50;;;;;;;6.78;3.97;;;;;;;18.59;100.00;98245.00;5075092;28;20550;-82
2023/08/01 04:38:16;;;;;;;5.68;3.78;;;;;;;18.73;100.00;98263.88;5074991;28;20032;-82
2023/08/01 04:40:41;;;;;;;4.47;3.78;;;;;;;18.59;100.00;98229.19;5056827;28;20044;-82
2023/08/01 04:43:07;;;;;;;5.13;4.30;;;;;;;18.77;100.00;98258.13;5074520;28;20029;-82
2023/08/01 04:45:32;;;;;;;4.82;4.30;;;;;;;18.76;100.00;98251.22;5074726;28;20107;-82
2023/08/01 04:47:57;;;;;;;4.45;3.78;;;;;;;18.79;100.00;98248.25;5074671;28;20055;-82
2023/08/01 04:50:23;;;;;;;5.03;4.07;;;;;;;18.62;100.00;98214.84;5075050;28;20024;-81
2023/08/01 04:52:48;;;;;;;6.03;4.97;;;;;;;18.95;100.00;98269.44;5075322;28;20028;-82
2023/08/01 04:55:14;;;;;;;6.82;4.43;;;;;;;18.84;100.00;98250.44;5074474;28;20360;-82
2023/08/01 04:57:39;;;;;;;6.60;4.35;;;;;;;18.73;100.00;98230.44;5074873;28;20028;-82
2023/08/01 05:00:05;;;;;;;6.22;4.13;;;;;;;18.73;100.00;98222.50;5074246;28;20031;-82
2023/08/01 05:02:31;;;;;;;6.07;4.40;;;;;;;18.85;100.00;98247.63;5074462;28;20101;-82
2023/08/01 05:04:56;;;;;;;7.13;4.18;;;;;;;18.77;100.00;98231.75;5074358;28;20463;-82
2023/08/01 05:07:21;;;;;;;5.57;4.43;;;;;;;18.95;100.00;98258.88;5074002;28;20032;-82
2023/08/01 05:09:47;;;;;;;5.22;3.97;;;;;;;18.80;100.00;98234.09;5074644;28;20033;-82
2023/08/01 05:12:12;;;;;;;7.00;4.10;;;;;;;18.97;100.00;98258.72;5074122;28;20414;-82
2023/08/01 05:14:38;;;;;;;8.00;4.22;;;;;;;18.94;100.00;98248.50;5052835;28;20048;-82
2023/08/01 05:17:03;;;;;;;4.95;3.88;;;;;;;18.74;100.00;98215.44;5053881;28;20138;-82
2023/08/01 05:19:29;;;;;;;6.90;4.90;;;;;;;18.97;100.00;98244.72;5053851;28;20079;-82
2023/08/01 05:21:55;;;;;;;5.15;4.25;;;;;;;18.85;100.00;98239.72;5054176;28;20036;-82
2023/08/01 05:24:20;;;;;;;5.35;4.68;;;;;;;18.77;100.00;98217.75;5054136;28;20025;-82
2023/08/01 05:26:45;;;;;;;8.32;5.00;;;;;;;18.91;100.00;98246.16;5052637;28;20080;-82
2023/08/01 05:29:11;;;;;;;6.03;4.55;;;;;;;18.86;100.00;98238.72;5053627;28;20029;-82
2023/08/01 05:31:36;;;;;;;7.03;5.38;;;;;;;18.85;100.00;98250.25;5053822;28;20051;-82
2023/08/01 05:34:01;;;;;;;8.15;5.00;;;;;;;18.79;100.00;98245.59;5053759;28;20061;-82
2023/08/01 05:36:27;;;;;;;9.05;4.85;;;;;;;18.55;100.00;98211.19;5053779;28;20021;-82
2023/08/01 05:38:52;;;;;;;8.15;5.60;;;;;;;18.70;100.00;98230.72;5053829;28;20029;-82
2023/08/01 05:41:17;;;;;;;7.35;5.28;;;;;;;18.54;100.00;98213.00;5053392;28;20103;-81
2023/08/01 05:43:43;;;;;;;8.10;5.25;;;;;;;18.59;100.00;98223.91;5053639;28;20035;-82
2023/08/01 05:46:08;;;;;;;5.22;4.70;;;;;;;18.58;100.00;98208.22;5053371;28;20384;-82
2023/08/01 05:48:33;;;;;;;6.03;5.30;;;;;;;18.78;100.00;98235.22;5053379;28;20419;-82
2023/08/01 05:50:59;;;;;;;5.97;4.63;;;;;;;18.78;100.00;98229.94;5053619;28;20021;-82
2023/08/01 05:53:24;;;;;;;7.55;4.47;;;;;;;18.86;100.00;98251.91;5053325;28;20064;-82
2023/08/01 05:55:49;;;;;;;5.45;4.63;;;;;;;18.57;100.00;98196.84;5053361;28;20080;-82
2023/08/01 05:58:15;;;;;;;6.43;4.65;;;;;;;18.63;100.00;98227.06;5053385;28;20024;-82
2023/08/01 06:00:41;;;;;;;8.65;5.03;;;;;;;18.77;100.00;98239.69;5052341;28;20472;-82
2023/08/01 06:03:06;;;;;;;7.13;5.30;;;;;;;18.64;100.00;98210.25;5053548;28;20029;-82
2023/08/01 06:05:32;;;;;;;8.52;5.18;;;;;;;18.85;100.00;98230.97;5053406;28;20419;-82
2023/08/01 06:07:57;;;;;;;7.05;5.15;;;;;;;18.75;100.00;98217.91;5053275;28;20437;-82
2023/08/01 06:10:22;;;;;;;6.25;4.57;;;;;;;18.85;100.00;98231.81;5053213;28;20418;-82
2023/08/01 06:12:48;;;;;;;6.07;4.43;;;;;;;18.67;100.00;98197.56;5057208;28;20111;-82
2023/08/01 06:15:13;;;;;;;7.28;5.00;;;;;;;18.97;100.00;98226.25;5055096;28;20139;-82
2023/08/01 06:17:38;;;;;;;6.32;4.55;;;;;;;18.97;100.00;98218.34;5073202;28;20137;-82
2023/08/01 06:20:05;;;;;;;8.77;5.25;;;;;;;19.03;100.00;98222.97;5054891;28;20031;-82
2023/08/01 06:22:30;;;;;;;6.03;4.07;;;;;;;18.91;100.00;98203.94;5073580;28;20033;-82
2023/08/01 06:24:56;;;;;;;7.25;4.68;;;;;;;18.93;100.00;98202.81;5073261;28;20021;-82
2023/08/01 06:27:21;;;;;;;4.95;4.45;;;;;;;19.15;100.00;98221.69;5072774;28;20025;-82
2023/08/01 06:29:46;;;;;;;7.78;4.93;;;;;;;19.10;100.00;98218.69;5072952;28;20032;-82
2023/08/01 06:32:12;;;;;;;5.43;4.50;;;;;;;19.08;100.00;98203.00;5072611;28;20099;-82
2023/08/01 06:34:37;;;;;;;6.70;4.90;;;;;;;19.15;100.00;98208.47;5073542;28;20116;-82
2023/08/01 06:37:03;;;;;;;8.00;4.68;;;;;;;18.99;100.00;98187.31;5073758;28;20375;-82
2023/08/01 06:39:29;;;;;;;5.60;4.82;;;;;;;18.85;100.00;98163.22;5073208;28;20463;-81
2023/08/01 06:41:56;;;;;;;9.40;5.28;;;;;;;19.08;100.00;98210.94;5073357;28;20111;-82
2023/08/01 06:44:22;;;;;;;8.95;5.32;;;;;;;18.77;100.00;98168.47;5073866;28;20145;-82
2023/08/01 06:46:47;;;;;;;7.20;5.20;;;;;;;18.98;100.00;98206.78;5074517;28;20028;-82
2023/08/01 06:49:13;;;;;;;6.82;5.15;;;;;;;18.88;100.00;98191.09;5094153;28;20035;-82
2023/08/01 06:51:38;;;;;;;7.30;5.18;;;;;;;18.57;100.00;98153.84;5096449;28;20020;-82
2023/08/01 06:54:03;;;;;;;8.73;5.85;;;;;;;18.77;100.00;98189.56;5094237;28;20490;-84
2023/08/01 06:56:29;;;;;;;6.40;5.25;;;;;;;18.68;100.00;98188.66;5092508;28;20055;-83
2023/08/01 06:58:54;;;;;;;7.05;5.68;;;;;;;18.55;100.00;98154.00;5088822;28;20028;-82
2023/08/01 07:01:19;;;;;;;6.82;5.65;;;;;;;18.57;100.00;98159.13;5084953;28;20108;-82
2023/08/01 07:03:45;;;;;;;6.65;5.55;;;;;;;18.70;100.00;98183.25;5074462;28;20028;-82
2023/08/01 07:06:11;;;;;;;6.78;5.00;;;;;;;18.67;100.00;98179.13;5072601;28;20020;-82
2023/08/01 07:08:36;;;;;;;5.63;4.65;;;;;;;18.62;100.00;98165.56;5072470;28;20101;-82
2023/08/01 07:11:02;;;;;;;6.68;5.28;;;;;;;18.74;100.00;98194.31;5072786;28;20040;-82
2023/08/01 07:13:28;;;;;;;6.88;5.25;;;;;;;18.70;100.00;98185.91;5071827;28;20048;-82
2023/08/01 07:15:53;;;;;;;7.35;5.63;;;;;;;18.80;100.00;98183.16;5072434;28;20540;-81
2023/08/01 07:18:19;;;;;;;7.38;5.68;;;;;;;18.59;100.00;98146.63;5072375;28;20051;-81
2023/08/01 07:20:44;;;;;;;7.63;5.32;;;;;;;18.75;100.00;98156.41;5072688;28;20024;-81
2023/08/01 07:23:09;;;;;;;6.72;4.80;;;;;;;18.91;100.00;98177.56;5072181;28;20029;-82
2023/08/01 07:25:35;;;;;;;5.57;4.70;;;;;;;18.88;100.00;98167.34;5054433;28;20052;-81
2023/08/01 07:28:01;;;;;;;6.75;5.10;;;;;;;18.80;100.00;98146.22;5054404;28;20040;-82
2023/08/01 07:30:27;;;;;;;7.72;5.63;;;;;;;18.92;100.00;98171.31;5072257;28;20044;-83
2023/08/01 07:32:52;;;;;;;7.63;5.68;;;;;;;18.89;100.00;98159.28;5077190;28;20029;-83
2023/08/01 07:35:17;;;;;;;7.13;5.97;;;;;;;18.69;100.00;98142.03;5077145;28;20107;-83
2023/08/01 07:37:43;;;;;;;7.20;4.95;;;;;;;18.79;100.00;98160.38;5077186;28;20107;-82
2023/08/01 07:40:09;;;;;;;7.85;5.22;;;;;;;18.66;100.00;98143.16;5077392;28;20074;-82
2023/08/01 07:42:34;;;;;;;6.07;5.25;;;;;;;18.44;100.00;98122.66;5076697;28;20029;-82
2023/08/01 07:44:59;;;;;;;8.13;5.13;;;;;;;18.67;100.00;98150.09;5076702;28;20078;-82
2023/08/01 07:47:25;;;;;;;8.73;5.53;;;;;;;18.65;100.00;98135.41;5076090;28;20074;-82
2023/08/01 07:49:51;;;;;;;8.68;5.32;;;;;;;18.81;100.00;98147.88;5076838;28;20434;-80
2023/08/01 07:52:17;;;;;;;6.55;5.53;;;;;;;18.67;100.00;98117.63;5076044;28;20471;-82
2023/08/01 07:54:42;;;;;;;10.15;5.82;;;;;;;18.95;100.00;98158.63;5075915;28;20024;-84
2023/08/01 07:57:07;;;;;;;6.20;5.22;;;;;;;19.03;100.00;98136.69;5076129;28;20036;-84
2023/08/01 07:59:33;;;;;;;7.53;5.88;;;;;;;19.02;100.00;98129.78;5058702;28;20033;-83
2023/08/01 08:01:58;;;;;;;7.63;5.82;;;;;;;19.16;100.00;98137.06;5057943;28;20041;-85
2023/08/01 08:04:23;;;;;;;7.63;5.53;;;;;;;19.12;100.00;98135.72;5075889;28;20032;-83
2023/08/01 08:06:49;;;;;;;5.55;4.88;;;;;;;19.21;100.00;98131.28;5076264;28;20024;-82
2023/08/01 08:09:14;;;;;;;8.02;5.68;;;;;;;19.00;100.00;98086.88;5075848;28;20025;-81
2023/08/01 08:11:40;;;;;;;6.95;5.43;;;;;;;19.25;100.00;98119.41;5076205;28;20025;-81
2023/08/01 08:14:05;;;;;;;6.72;5.32;;;;;;;19.14;100.00;98080.16;5058633;28;20051;-81
2023/08/01 08:16:30;;;;;;;10.77;5.30;;;;;;;19.08;100.00;98062.31;5059128;28;20406;-81
2023/08/01 08:18:56;;;;;;;10.90;6.13;;;;;;;19.20;100.00;98080.31;5058806;28;20624;-82
2023/08/01 08:21:21;;;;;;;8.45;5.88;;;;;;;19.44;100.00;98095.34;5076161;28;20107;-82
2023/08/01 08:23:46;;;;;;;6.70;4.80;;;;;;;19.41;100.00;98058.69;5076266;28;20108;-82
2023/08/01 08:26:12;;;;;;;5.47;4.85;;;;;;;19.61;100.00;98092.72;5058506;28;20028;-82
2023/08/01 08:28:37;;;;;;;5.95;5.00;;;;;;;19.52;100.00;98062.00;5066923;28;20029;-83
2023/08/01 08:31:03;;;;;;;6.35;5.13;;;;;;;19.66;100.00;98077.19;5056022;28;20039;-82
2023/08/01 08:33:29;;;;;;;8.00;6.03;;;;;;;19.62;100.00;98073.22;5055648;28;20043;-82
2023/08/01 08:35:54;;;;;;;6.25;5.07;;;;;;;19.61;100.00;98077.69;5055417;28;20602;-82
2023/08/01 08:38:20;;;;;;;7.53;5.20;;;;;;;19.59;100.00;98055.91;5055068;28;20074;-82
2023/08/01 08:41:01;;;;;;;9.43;5.40;;;;;;;19.74;100.00;98071.06;5056172;28;20036;-82
2023/08/01 08:43:27;;;;;;;7.65;5.68;;;;;;;19.79;100.00;98059.00;5054719;28;20021;-82
2023/08/01 08:45:57;;;;;;;7.20;5.13;;;;;;;20.17;100.00;98083.00;5056279;28;20152;-82
2023/08/01 08:48:24;;;;;;;5.77;4.80;;;;;;;20.44;100.00;98079.94;5056044;28;20025;-82
2023/08/01 08:50:50;;;;;;;7.13;5.05;;;;;;;20.73;100.00;98075.00;5055799;28;20467;-82
2023/08/01 08:53:16;;;;;;;7.32;4.93;;;;;;;20.88;100.00;98060.03;5054903;28;20028;-83
2023/08/01 08:55:41;;;;;;;7.13;4.90;;;;;;;21.03;100.00;98071.53;5054951;28;20180;-82
2023/08/01 08:58:08;;;;;;;5.70;4.45;;;;;;;21.03;100.00;98050.34;5055124;28;20067;-82
2023/08/01 09:00:37;;;;;;;7.55;4.65;;;;;;;21.12;100.00;98048.47;5054879;28;20060;-81
2023/08/01 09:03:06;;;;;;;7.13;4.93;;;;;;;21.21;100.00;98057.16;5055842;28;20059;-82
2023/08/01 09:05:48;;;;;;;5.50;4.32;;;;;;;21.31;100.00;98066.50;5059741;28;20112;-82
2023/08/01 09:09:09;;;;;;;6.18;4.80;;;;;;;21.32;100.00;98068.19;5045843;28;20094;-82
2023/08/01 09:11:39;;;;;;;5.50;4.53;;;;;;;21.35;100.00;98059.06;4938402;29;20047;-82
2023/08/01 09:14:05;;;;;;;5.07;4.57;;;;;;;21.41;100.00;98058.34;4935150;29;20518;-82
2023/08/01 09:16:30;;;;;;;5.30;4.80;;;;;;;21.56;100.00;98055.72;4934593;29;20051;-82
2023/08/01 09:18:56;;;;;;;4.68;4.13;;;;;;;21.72;100.00;98063.50;4934992;29;20388;-82
2023/08/01 09:21:22;;;;;;;6.32;4.95;;;;;;;21.77;100.00;98044.41;4935667;29;20055;-81
2023/08/01 09:23:47;;;;;;;5.63;5.03;;;;;;;21.71;100.00;98029.25;4935653;29;20048;-81
2023/08/01 09:26:14;;;;;;;5.68;4.60;;;;;;;21.78;100.00;98033.63;4935109;29;20043;-81
2023/08/01 09:28:40;;;;;;;9.40;5.18;;;;;;;21.83;100.00;98033.09;4935134;29;20065;-81
2023/08/01 09:31:05;;;;;;;6.57;4.93;;;;;;;22.01;100.00;98062.72;4935369;29;20031;-81
2023/08/01 09:33:42;;;;;;;6.70;5.25;;;;;;;21.86;100.00;98030.88;4935392;29;20031;-81
2023/08/01 09:36:09;;;;;;;6.43;4.70;;;;;;;22.11;100.00;98055.28;4936705;29;20046;-82
2023/08/01 09:38:36;;;;;;;5.80;4.22;;;;;;;22.03;100.00;98028.03;4935448;29;20046;-82
2023/08/01 09:41:03;;;;;;;6.45;4.30;;;;;;;22.11;100.00;98020.00;4935572;29;20164;-82
2023/08/01 09:43:38;;;;;;;4.90;4.25;;;;;;;22.39;100.00;98039.56;4935518;29;20101;-82
2023/08/01 09:46:07;;;;;;;5.25;4.20;;;;;;;22.25;100.00;97995.34;4934509;29;20083;-81
2023/08/01 09:48:32;;;;;;;5.35;4.13;;;;;;;22.37;100.00;98009.72;5023017;28;20385;-82
2023/08/01 09:51:11;;;;;;;5.15;4.63;;;;;;;22.28;100.00;98002.09;5036034;28;20044;-82
2023/08/01 09:53:52;;;;;;;5.78;4.40;;;;;;;22.23;100.00;98012.44;5052524;28;20559;-82
2023/08/01 09:56:23;;;;;;;6.45;4.82;;;;;;;22.30;100.00;98029.25;5054058;28;20025;-82
2023/08/01 09:58:50;;;;;;;5.57;4.47;;;;;;;22.04;100.00;98011.97;5053978;28;20033;-81
2023/08/01 10:01:18;;;;;;;5.55;4.28;;;;;;;21.84;100.00;98016.19;5053588;28;20029;-82
2023/08/01 10:03:48;;;;;;;5.28;4.47;;;;;;;21.68;100.00;98019.84;5053561;28;20066;-82
2023/08/01 10:06:24;;;;;;;6.63;4.40;;;;;;;21.55;100.00;98017.81;5054061;28;20426;-82
2023/08/01 10:08:51;;;;;;;4.97;4.25;;;;;;;21.26;100.00;97997.38;5054258;28;20029;-82
2023/08/01 10:11:20;;;;;;;6.10;4.20;;;;;;;21.04;100.00;97992.94;5053635;28;20078;-82
2023/08/01 10:13:46;;;;;;;4.68;4.15;;;;;;;20.65;100.00;97960.31;5053700;28;20045;-82
2023/08/01 10:16:13;;;;;;;7.93;5.60;;;;;;;20.76;100.00;97979.41;5035563;28;20052;-81
2023/08/01 10:18:39;;;;;;;6.75;4.70;;;;;;;20.95;100.00;98001.94;5053201;28;20617;-82
2023/08/01 10:21:23;;;;;;;4.68;4.28;;;;;;;20.76;100.00;97967.00;5053376;28;20029;-82
2023/08/01 10:23:49;;;;;;;5.43;4.40;;;;;;;20.86;100.00;97958.84;5053829;28;20100;-81
2023/08/01 10:26:15;;;;;;;6.10;4.60;;;;;;;21.10;100.00;97973.69;5053411;28;20171;-81
2023/08/01 10:28:49;;;;;;;5.20;4.65;;;;;;;21.29;100.00;97999.66;5053250;28;20040;-81
2023/08/01 10:31:16;;;;;;;4.45;4.05;;;;;;;21.28;100.00;97997.16;5053471;28;20036;-82
2023/08/01 10:33:47;;;;;;;5.00;4.50;;;;;;;21.28;100.00;97995.38;5053675;28;20063;-81
2023/08/01 10:36:19;;;;;;;4.97;4.33;;;;;;;21.21;100.00;97978.56;5053284;28;20025;-81
2023/08/01 10:38:49;;;;;;;5.05;3.97;;;;;;;21.32;100.00;97988.75;5053564;28;20025;-82
2023/08/01 10:41:26;;;;;;;6.50;3.85;;;;;;;21.27;100.00;97963.75;5035925;28;20070;-81
2023/08/01 10:43:51;;;;;;;5.35;4.47;;;;;;;21.43;100.00;97968.94;5053144;28;20021;-81
2023/08/01 10:46:17;;;;;;;6.35;4.15;;;;;;;21.42;100.00;97948.75;5053422;28;20043;-82
2023/08/01 10:48:50;;;;;;;3.85;3.47;;;;;;;21.79;100.00;97984.13;5052821;28;20098;-81
2023/08/01 10:51:15;;;;;;;4.38;3.97;;;;;;;21.83;100.00;97958.91;5053427;28;20033;-81
2023/08/01 10:53:40;;;;;;;5.10;3.53;;;;;;;21.96;99.70;97963.53;5053311;28;20044;-82
2023/08/01 10:56:07;;;;;;;5.57;3.90;;;;;;;21.99;98.32;97966.63;5053594;28;20033;-82
2023/08/01 10:58:33;;;;;;;4.03;3.47;;;;;;;21.96;97.70;97943.16;5052910;28;20127;-82
2023/08/01 11:00:59;;;;;;;4.03;3.63;;;;;;;22.40;97.20;97995.28;5052755;28;20037;-81
2023/08/01 11:03:37;;;;;;;4.45;3.40;;;;;;;22.41;97.11;97979.16;5053776;28;20090;-81
2023/08/01 11:06:03;;;;;;;4.13;3.38;;;;;;;22.27;97.18;97948.22;5053934;28;20025;-81
2023/08/01 11:08:43;;;;;;;5.75;3.95;;;;;;;22.26;96.67;97951.06;5053810;28;20440;-81
2023/08/01 11:11:12;;;;;;;6.88;3.85;;;;;;;22.39;96.69;97989.16;5052981;28;20052;-81
2023/08/01 11:13:38;;;;;;;4.00;3.63;;;;;;;22.28;97.04;97984.34;5052722;28;20508;-82
2023/08/01 11:16:06;;;;;;;4.95;3.55;;;;;;;22.11;96.55;97975.75;5052886;28;20068;-82
2023/08/01 11:18:43;;;;;;;4.10;3.40;;;;;;;22.08;97.70;97988.53;5050001;28;20061;-82
2023/08/01 11:21:09;;;;;;;5.38;3.63;;;;;;;21.99;98.76;97984.34;5053146;28;20020;-82
2023/08/01 11:23:36;;;;;;;5.00;3.40;;;;;;;21.87;99.90;97966.28;5052646;28;20404;-81